Historique des mesures à Cassis (13260), France
Quotidien Résumé Fevrier 25, 2018 Unités:  Métrique    US   Métrique/US
« Précédent (Jour)
Suivant (Jour) »
Quotidien Hebdomadaire Mensuel Annuel Période au choix
  Maximum: Minimum: Moyenne:
Température: TemperatureC °C 5.5 °C 8.7 °C
Point de rosée: DewpointC °C -1.7 °C 3.5 °C
Humidité: Humidity % 53 % 67 %
Vitesse du vent: 0 km/h 0 km/h 5.8 km/h
Rafales: 0 km/h - -
Vent:- - SW
Pression: PressurehPa hPa 1001.9 hPa -
Précipitations: 0.5 mm    
Historical Graphs
 
 
Mesures pour : Fevrier 25, 2018
Heure Temperature Point de rosée Pression Vent Vitesse du vent Rafales Humidité Pluie (par heure) Conditions
TemperatureC °C DewpointC °C PressurehPa hPa Calm     Humidity % HourlyPrecipMM mm SoftwareType W/m2
00:12 8.1 °C 3.8 °C 1003.3 hPa NNE 10.3 km/h 10.3 km/h 74 % 0.0 mm open2300-1.11 W/m2
01:12 8.3 °C 3.7 °C 1003.6 hPa North 1.8 km/h 8 km/h 73 % 0.0 mm open2300-1.11 W/m2
02:12 8.4 °C 3.6 °C 1003.3 hPa NNW 5.1 km/h 6.9 km/h 72 % 0.0 mm open2300-1.11 W/m2
03:12 8.9 °C 3.9 °C 1003.3 hPa NNW 8 km/h 8 km/h 71 % 0.0 mm open2300-1.11 W/m2
04:12 9.2 °C 4.2 °C 1003.6 hPa Calm     71 % 0.0 mm open2300-1.11 W/m2
05:12 9.9 °C 5.1 °C 1003.6 hPa Calm     72 % 0.0 mm open2300-1.11 W/m2
06:12 9.1 °C 5.4 °C 1003.9 hPa Calm     78 % 0.0 mm open2300-1.11 W/m2
07:12 9.3 °C 5.4 °C 1003.6 hPa NNW 4.2 km/h 6.4 km/h 77 % 0.0 mm open2300-1.11 W/m2
08:12 9.8 °C 5.7 °C 1003.6 hPa Calm     76 % 0.0 mm open2300-1.11 W/m2
09:12 9.9 °C 6.2 °C 1003.9 hPa Calm     78 % 0.0 mm open2300-1.11 W/m2
10:12 9.6 °C 6.5 °C 1004.3 hPa ESE 4.7 km/h 4.7 km/h 81 % 0.5 mm open2300-1.11 W/m2
11:12 10.6 °C 7.5 °C 1003.9 hPa Calm   3.4 km/h 81 % 0.0 mm open2300-1.11 W/m2
12:12 11.3 °C 7.4 °C 1003.9 hPa NW 4.2 km/h 5.1 km/h 77 % 0.0 mm open2300-1.11 W/m2
13:12 11.1 °C 6.1 °C 1002.9 hPa WNW 24.8 km/h 24.8 km/h 71 % 0.0 mm open2300-1.11 W/m2
14:12 11.1 °C 4.7 °C 1002.3 hPa WNW 24.3 km/h 45.4 km/h 65 % 0.0 mm open2300-1.11 W/m2
15:12 11.2 °C 3.2 °C 1002.3 hPa West 17.4 km/h 36.5 km/h 58 % 0.0 mm open2300-1.11 W/m2
16:12 10.9 °C 1.7 °C 1001.9 hPa West 9.8 km/h 9.8 km/h 53 % 0.0 mm open2300-1.11 W/m2
17:12 9.8 °C 1.2 °C 1001.9 hPa NW 6.4 km/h 24.3 km/h 55 % 0.0 mm open2300-1.11 W/m2
18:12 7.4 °C -0.6 °C 1001.9 hPa West 8 km/h 8 km/h 57 % 0.0 mm open2300-1.11 W/m2
19:12 6.5 °C -0.9 °C 1001.9 hPa Calm     59 % 0.0 mm open2300-1.11 W/m2
20:12 5.5 °C -1.7 °C 1001.9 hPa NNE 9.3 km/h 16.3 km/h 60 % 0.0 mm open2300-1.11 W/m2
21:12 6.6 °C -0.2 °C 1002.6 hPa WNW 7.6 km/h 7.6 km/h 62 % 0.0 mm open2300-1.11 W/m2
22:12 7.3 °C 2.4 °C 1003.6 hPa Calm   9.8 km/h 71 % 0.0 mm open2300-1.11 W/m2
23:12 7.3 °C 3.2 °C 1003.9 hPa Calm     75 % 0.0 mm open2300-1.11 W/m2
Observations météo à CASSIS
WU-History script by Weather Underground - 1 mb